Time;durP1;ratioP1;P1;durP2;ratioP2;P2;SDS_P1;SDS_P2;PMS_P1;PMS_P2;Temp;Humidity;BMP_temperature;BMP_pressure;BME280_temperature;BME280_humidity;BME280_pressure;Samples;Min_cycle;Max_cycle;Signal;HPM_P1;HPM_P2
2024/01/20 00:01:53;;;;;;;;;;;;;;;;;;5006976;28;20330;-73
2024/01/20 00:04:19;;;;;;;;;;;;;;;;;;5025474;28;19945;-73
2024/01/20 00:10:09;;;;;;;;;;;;;;;;;;5021903;28;19952;-74
2024/01/20 00:12:35;;;;;;;;;;;;;;;;;;5051659;28;20121;-72
2024/01/20 00:15:01;;;;;;;;;;;;;;;;;;5022122;28;19925;-72
2024/01/20 00:20:10;;;;;;;;;;;;;;;;;;5020572;28;19966;-74
2024/01/20 00:22:36;;;;;;;;;;;;;;;;;;5020579;28;20020;-73
2024/01/20 00:25:02;;;;;;;;;;;;;;;;;;5023621;28;20388;-72
2024/01/20 00:27:27;;;;;;;;;;;;;;;;;;5037684;28;19917;-72
2024/01/20 00:29:53;;;;;;;;;;;;;;;;;;5020949;28;20079;-73
2024/01/20 00:32:18;;;;;;;;;;;;;;;;;;5023552;28;19963;-72
2024/01/20 00:34:43;;;;;;;;;;;;;;;;;;5021830;28;19971;-72
2024/01/20 00:37:09;;;;;;;;;;;;;;;;;;5021527;28;19921;-71
2024/01/20 00:39:34;;;;;;;;;;;;;;;;;;5023234;28;20356;-72
2024/01/20 00:42:00;;;;;;;;;;;;;;;;;;5020340;28;20520;-72
2024/01/20 00:44:28;;;;;;;;;;;;;;;;;;5033781;28;19921;-72
2024/01/20 00:46:53;;;;;;;;;;;;;;;;;;5003368;28;19917;-72
2024/01/20 00:49:18;;;;;;;;;;;;;;;;;;5020663;28;19990;-73
2024/01/20 00:51:44;;;;;;;;;;;;;;;;;;5020970;28;20399;-72
2024/01/20 00:54:09;;;;;;;;;;;;;;;;;;5038862;28;20380;-72
2024/01/20 00:56:34;;;;;;;;;;;;;;;;;;5020241;28;20180;-72
2024/01/20 00:59:00;;;;;;;;;;;;;;;;;;5022285;28;19917;-70
2024/01/20 01:01:25;;;;;;;;;;;;;;;;;;5019099;28;19943;-71
2024/01/20 01:03:50;;;;;;;;;;;;;;;;;;5024086;28;19971;-72
2024/01/20 01:06:16;;;;;;;;;;;;;;;;;;5034558;28;20465;-71
2024/01/20 01:08:41;;;;;;;;;;;;;;;;;;5023844;28;19939;-71
2024/01/20 01:11:09;;;;;;;;;;;;;;;;;;5003677;28;20052;-71
2024/01/20 01:13:37;;;;;;;;;;;;;;;;;;5020211;28;20360;-70
2024/01/20 01:16:02;;;;;;;;;;;;;;;;;;5020192;28;20356;-70
2024/01/20 01:18:30;;;;;;;;;;;;;;;;;;5020369;28;19921;-70
2024/01/20 01:20:55;;;;;;;;;;;;;;;;;;5020290;28;20379;-71
2024/01/20 01:23:23;;;;;;;;;;;;;;;;;;5035978;28;19921;-71
2024/01/20 01:25:52;;;;;;;;;;;;;;;;;;5018961;28;19921;-71
2024/01/20 01:28:17;;;;;;;;;;;;;;;;;;5002706;28;19917;-72
2024/01/20 01:30:42;;;;;;;;;;;;;;;;;;5015395;28;20080;-72
2024/01/20 01:33:08;;;;;;;;;;;;;;;;;;5001231;28;19928;-74
2024/01/20 01:35:36;;;;;;;;;;;;;;;;;;5021556;28;19932;-73
2024/01/20 01:38:04;;;;;;;;;;;;;;;;;;5053419;28;19916;-72
2024/01/20 01:40:29;;;;;;;;;;;;;;;;;;5017108;28;19920;-71
2024/01/20 01:42:57;;;;;;;;;;;;;;;;;;5003563;28;19985;-72
2024/01/20 01:45:22;;;;;;;;;;;;;;;;;;5020971;28;20044;-71
2024/01/20 01:47:48;;;;;;;;;;;;;;;;;;5053928;28;19947;-72
2024/01/20 01:50:16;;;;;;;;;;;;;;;;;;5052979;28;19928;-71
2024/01/20 01:52:41;;;;;;;;;;;;;;;;;;5035191;28;19917;-71
2024/01/20 01:55:06;;;;;;;;;;;;;;;;;;5020184;28;19933;-72
2024/01/20 01:57:32;;;;;;;;;;;;;;;;;;5021216;28;19927;-72
2024/01/20 01:59:57;;;;;;;;;;;;;;;;;;5020661;28;19917;-71
2024/01/20 02:02:23;;;;;;;;;;;;;;;;;;5020761;28;20784;-71
2024/01/20 02:04:48;;;;;;;;;;;;;;;;;;5052954;28;19924;-71
2024/01/20 02:07:15;;;;;;;;;;;;;;;;;;5019571;28;21582;-71
2024/01/20 02:09:40;;;;;;;;;;;;;;;;;;5019510;28;19917;-72
2024/01/20 02:12:08;;;;;;;;;;;;;;;;;;5017687;28;20000;-71
2024/01/20 02:14:33;;;;;;;;;;;;;;;;;;5054373;28;20380;-71
2024/01/20 02:16:58;;;;;;;;;;;;;;;;;;5022127;28;19936;-71
2024/01/20 02:19:24;;;;;;;;;;;;;;;;;;5002157;28;19952;-72
2024/01/20 02:21:51;;;;;;;;;;;;;;;;;;5038696;28;19925;-73
2024/01/20 02:24:17;;;;;;;;;;;;;;;;;;5017807;28;19927;-68
2024/01/20 02:26:42;;;;;;;;;;;;;;;;;;5017490;28;19929;-73
2024/01/20 02:29:07;;;;;;;;;;;;;;;;;;5003896;28;20002;-70
2024/01/20 02:31:33;;;;;;;;;;;;;;;;;;5019716;28;19921;-71
2024/01/20 02:33:58;;;;;;;;;;;;;;;;;;5003230;28;19921;-71
2024/01/20 02:36:23;;;;;;;;;;;;;;;;;;5021795;28;19921;-72
2024/01/20 02:38:49;;;;;;;;;;;;;;;;;;5020886;28;20031;-71
2024/01/20 02:41:16;;;;;;;;;;;;;;;;;;5016736;28;20015;-71
2024/01/20 02:43:44;;;;;;;;;;;;;;;;;;5020397;28;20206;-72
2024/01/20 02:46:09;;;;;;;;;;;;;;;;;;5015794;28;19971;-71
2024/01/20 02:48:37;;;;;;;;;;;;;;;;;;5014290;28;19925;-71
2024/01/20 02:51:03;;;;;;;;;;;;;;;;;;5003546;28;20379;-72
2024/01/20 02:53:29;;;;;;;;;;;;;;;;;;5015515;28;20070;-71
2024/01/20 02:55:54;;;;;;;;;;;;;;;;;;5035209;28;20396;-70
2024/01/20 02:58:20;;;;;;;;;;;;;;;;;;5052155;28;20207;-71
2024/01/20 03:00:45;;;;;;;;;;;;;;;;;;5019348;28;19931;-71
2024/01/20 03:03:11;;;;;;;;;;;;;;;;;;5020358;28;19924;-72
2024/01/20 03:05:39;;;;;;;;;;;;;;;;;;5018948;28;19921;-71
2024/01/20 03:08:04;;;;;;;;;;;;;;;;;;5018318;28;20372;-71
2024/01/20 03:10:29;;;;;;;;;;;;;;;;;;5020067;28;19921;-71
2024/01/20 03:12:55;;;;;;;;;;;;;;;;;;5000568;28;19916;-71
2024/01/20 03:15:20;;;;;;;;;;;;;;;;;;5044912;28;19925;-71
2024/01/20 03:17:45;;;;;;;;;;;;;;;;;;5020345;28;20360;-71
2024/01/20 03:20:11;;;;;;;;;;;;;;;;;;5033618;28;19920;-72
2024/01/20 03:22:36;;;;;;;;;;;;;;;;;;5021334;28;20355;-73
2024/01/20 03:25:13;;;;;;;;;;;;;;;;;;5018012;28;20392;-72
2024/01/20 03:27:41;;;;;;;;;;;;;;;;;;5022021;28;20387;-73
2024/01/20 03:30:07;;;;;;;;;;;;;;;;;;5002591;28;19922;-74
2024/01/20 03:32:32;;;;;;;;;;;;;;;;;;5000736;28;19925;-71
2024/01/20 03:34:57;;;;;;;;;;;;;;;;;;5013134;28;19928;-70
2024/01/20 03:37:23;;;;;;;;;;;;;;;;;;5016678;28;20291;-72
2024/01/20 03:39:48;;;;;;;;;;;;;;;;;;5001354;28;19916;-73
2024/01/20 03:42:13;;;;;;;;;;;;;;;;;;5015967;28;20063;-71
2024/01/20 03:44:39;;;;;;;;;;;;;;;;;;5020021;28;19921;-72
2024/01/20 03:47:04;;;;;;;;;;;;;;;;;;5019716;28;19921;-73
2024/01/20 03:49:29;;;;;;;;;;;;;;;;;;5023687;28;20463;-71
2024/01/20 03:51:57;;;;;;;;;;;;;;;;;;5020184;28;20031;-74
2024/01/20 03:54:25;;;;;;;;;;;;;;;;;;5034531;28;19913;-73
2024/01/20 03:56:50;;;;;;;;;;;;;;;;;;5017754;28;19932;-72
2024/01/20 03:59:15;;;;;;;;;;;;;;;;;;5020013;28;19943;-72
2024/01/20 04:01:41;;;;;;;;;;;;;;;;;;5020190;28;19948;-73
2024/01/20 04:04:06;;;;;;;;;;;;;;;;;;5007265;28;19921;-73
2024/01/20 04:06:31;;;;;;;;;;;;;;;;;;5021053;28;19917;-73
2024/01/20 04:09:00;;;;;;;;;;;;;;;;;;5022099;28;19928;-73
2024/01/20 04:11:25;;;;;;;;;;;;;;;;;;5021593;28;20395;-72
2024/01/20 04:13:53;;;;;;;;;;;;;;;;;;5022332;28;19963;-72
2024/01/20 04:16:19;;;;;;;;;;;;;;;;;;5031754;28;20410;-71
2024/01/20 04:18:44;;;;;;;;;;;;;;;;;;5055558;28;19921;-73
2024/01/20 04:21:09;;;;;;;;;;;;;;;;;;5021731;28;19921;-74
2024/01/20 04:23:35;;;;;;;;;;;;;;;;;;5005378;28;20283;-74
2024/01/20 04:26:00;;;;;;;;;;;;;;;;;;5022958;28;20059;-73
2024/01/20 04:28:28;;;;;;;;;;;;;;;;;;5023266;28;19995;-73
2024/01/20 04:30:54;;;;;;;;;;;;;;;;;;5002422;28;20616;-71
2024/01/20 04:33:19;;;;;;;;;;;;;;;;;;5039395;28;20355;-75
2024/01/20 04:35:47;;;;;;;;;;;;;;;;;;5018239;28;20470;-74
2024/01/20 04:38:15;;;;;;;;;;;;;;;;;;5051350;28;19916;-72
2024/01/20 04:40:40;;;;;;;;;;;;;;;;;;5050488;28;19967;-73
2024/01/20 04:43:05;;;;;;;;;;;;;;;;;;5004944;28;20068;-74
2024/01/20 04:45:31;;;;;;;;;;;;;;;;;;5021848;28;19956;-73
2024/01/20 04:47:56;;;;;;;;;;;;;;;;;;5018200;28;20388;-74
2024/01/20 04:50:22;;;;;;;;;;;;;;;;;;5020984;28;22146;-74
2024/01/20 04:52:47;;;;;;;;;;;;;;;;;;5020439;28;19932;-75
2024/01/20 04:55:12;;;;;;;;;;;;;;;;;;5020259;28;19924;-73
2024/01/20 04:57:38;;;;;;;;;;;;;;;;;;5019010;28;19931;-76
2024/01/20 05:00:03;;;;;;;;;;;;;;;;;;5005334;28;20682;-74
2024/01/20 05:05:45;;;;;;;;;;;;;;;;;;5024449;28;20027;-75
2024/01/20 05:08:10;;;;;;;;;;;;;;;;;;5004883;28;20467;-76
2024/01/20 05:10:35;;;;;;;;;;;;;;;;;;5023951;28;20365;-74
2024/01/20 05:13:03;;;;;;;;;;;;;;;;;;5020063;28;20280;-75
2024/01/20 05:15:28;;;;;;;;;;;;;;;;;;5019955;28;19966;-73
2024/01/20 05:17:54;;;;;;;;;;;;;;;;;;5002918;28;19917;-75
2024/01/20 05:20:19;;;;;;;;;;;;;;;;;;5019053;28;20438;-75
2024/01/20 05:22:44;;;;;;;;;;;;;;;;;;5019528;28;19921;-76
2024/01/20 05:25:10;;;;;;;;;;;;;;;;;;5018297;28;19987;-74
2024/01/20 05:27:35;;;;;;;;;;;;;;;;;;5018945;28;20241;-75
2024/01/20 05:30:00;;;;;;;;;;;;;;;;;;5003735;28;19921;-74
2024/01/20 05:32:26;;;;;;;;;;;;;;;;;;5019810;28;19928;-74
2024/01/20 05:34:51;;;;;;;;;;;;;;;;;;5020757;28;19921;-74
2024/01/20 05:37:17;;;;;;;;;;;;;;;;;;5021183;28;19996;-76
2024/01/20 05:39:42;;;;;;;;;;;;;;;;;;5003943;28;20008;-74
2024/01/20 05:42:07;;;;;;;;;;;;;;;;;;5023606;28;19917;-75
2024/01/20 05:44:33;;;;;;;;;;;;;;;;;;5022839;28;19991;-75
2024/01/20 05:46:58;;;;;;;;;;;;;;;;;;5019716;28;20168;-80
2024/01/20 05:49:23;;;;;;;;;;;;;;;;;;5020139;28;19914;-76
2024/01/20 05:51:48;;;;;;;;;;;;;;;;;;5020071;28;19917;-75
2024/01/20 05:54:14;;;;;;;;;;;;;;;;;;5018656;28;20064;-76
2024/01/20 05:56:39;;;;;;;;;;;;;;;;;;5001834;28;19964;-73
2024/01/20 05:59:04;;;;;;;;;;;;;;;;;;5020034;28;20364;-77
2024/01/20 06:01:30;;;;;;;;;;;;;;;;;;5014150;28;19999;-76
2024/01/20 06:03:55;;;;;;;;;;;;;;;;;;5039233;28;20515;-76
2024/01/20 06:06:20;;;;;;;;;;;;;;;;;;5032091;28;20620;-76
2024/01/20 06:08:46;;;;;;;;;;;;;;;;;;5021209;28;20398;-76
2024/01/20 06:11:11;;;;;;;;;;;;;;;;;;5031412;28;19916;-76
2024/01/20 06:13:37;;;;;;;;;;;;;;;;;;5021574;28;19917;-73
2024/01/20 06:16:02;;;;;;;;;;;;;;;;;;5035514;28;19924;-76
2024/01/20 06:18:27;;;;;;;;;;;;;;;;;;5020511;28;19921;-76
2024/01/20 06:20:53;;;;;;;;;;;;;;;;;;5018253;28;20030;-76
2024/01/20 06:23:18;;;;;;;;;;;;;;;;;;5019263;28;20538;-76
2024/01/20 06:25:44;;;;;;;;;;;;;;;;;;5017705;28;19996;-73
2024/01/20 06:28:10;;;;;;;;;;;;;;;;;;5018759;28;20210;-76
2024/01/20 06:30:35;;;;;;;;;;;;;;;;;;5016258;28;20283;-74
2024/01/20 06:33:00;;;;;;;;;;;;;;;;;;5017223;28;19927;-74
2024/01/20 06:35:31;;;;;;;;;;;;;;;;;;5053301;28;20152;-73
2024/01/20 06:37:59;;;;;;;;;;;;;;;;;;5051250;28;19916;-75
2024/01/20 06:40:27;;;;;;;;;;;;;;;;;;5019364;28;19917;-75
2024/01/20 06:42:52;;;;;;;;;;;;;;;;;;5019778;28;19921;-73
2024/01/20 06:45:20;;;;;;;;;;;;;;;;;;5018775;28;20039;-76
2024/01/20 06:47:45;;;;;;;;;;;;;;;;;;5001565;28;21483;-77
2024/01/20 06:50:13;;;;;;;;;;;;;;;;;;5012805;28;19921;-76
2024/01/20 06:52:38;;;;;;;;;;;;;;;;;;5017270;28;20352;-74
2024/01/20 06:55:05;;;;;;;;;;;;;;;;;;4998466;28;20016;-77
2024/01/20 06:57:30;;;;;;;;;;;;;;;;;;5009735;28;19921;-74
2024/01/20 06:59:58;;;;;;;;;;;;;;;;;;5000279;28;19925;-76
2024/01/20 07:02:24;;;;;;;;;;;;;;;;;;5020016;28;19924;-75
2024/01/20 07:04:54;;;;;;;;;;;;;;;;;;5004998;28;20644;-74
2024/01/20 07:07:23;;;;;;;;;;;;;;;;;;5010823;28;19955;-73
2024/01/20 07:13:05;;;;;;;;;;;;;;;;;;5017891;28;19923;-76
2024/01/20 07:15:33;;;;;;;;;;;;;;;;;;5036132;28;19968;-75
2024/01/20 07:18:03;;;;;;;;;;;;;;;;;;5020902;28;19990;-72
2024/01/20 07:20:29;;;;;;;;;;;;;;;;;;5011743;28;19921;-74
2024/01/20 07:22:56;;;;;;;;;;;;;;;;;;5021067;28;19924;-75
2024/01/20 07:25:25;;;;;;;;;;;;;;;;;;5022025;28;20391;-72
2024/01/20 07:27:50;;;;;;;;;;;;;;;;;;5005206;28;19981;-74
2024/01/20 07:30:15;;;;;;;;;;;;;;;;;;5018168;28;20008;-75
2024/01/20 07:32:41;;;;;;;;;;;;;;;;;;5017730;28;20439;-72
2024/01/20 07:35:07;;;;;;;;;;;;;;;;;;5005221;28;19921;-72
2024/01/20 07:37:35;;;;;;;;;;;;;;;;;;5020619;28;20131;-74
2024/01/20 07:40:01;;;;;;;;;;;;;;;;;;5019943;28;19967;-74
2024/01/20 07:42:28;;;;;;;;;;;;;;;;;;5024307;28;21864;-72
2024/01/20 07:44:56;;;;;;;;;;;;;;;;;;5005588;28;19928;-72
2024/01/20 07:47:24;;;;;;;;;;;;;;;;;;5040133;28;19967;-71
2024/01/20 07:49:50;;;;;;;;;;;;;;;;;;5022361;28;20035;-75
2024/01/20 07:52:18;;;;;;;;;;;;;;;;;;5010480;28;20020;-71
2024/01/20 07:54:43;;;;;;;;;;;;;;;;;;5021970;28;20360;-73
2024/01/20 07:57:09;;;;;;;;;;;;;;;;;;5006175;28;19936;-73
2024/01/20 07:59:34;;;;;;;;;;;;;;;;;;5038129;28;19920;-73
2024/01/20 08:02:00;;;;;;;;;;;;;;;;;;5024795;28;19927;-72
2024/01/20 08:07:42;;;;;;;;;;;;;;;;;;5016961;28;19924;-71
2024/01/20 08:10:10;;;;;;;;;;;;;;;;;;5025445;28;19921;-72
2024/01/20 08:12:35;;;;;;;;;;;;;;;;;;5021893;28;20454;-70
2024/01/20 08:15:03;;;;;;;;;;;;;;;;;;5023973;28;19921;-73
2024/01/20 08:17:31;;;;;;;;;;;;;;;;;;5025012;28;19927;-70
2024/01/20 08:19:56;;;;;;;;;;;;;;;;;;5018588;28;20181;-72
2024/01/20 08:22:21;;;;;;;;;;;;;;;;;;5051076;28;19975;-72
2024/01/20 08:24:47;;;;;;;;;;;;;;;;;;5022367;28;19921;-70
2024/01/20 08:27:12;;;;;;;;;;;;;;;;;;5020538;28;19920;-72
2024/01/20 08:29:40;;;;;;;;;;;;;;;;;;5020874;28;19921;-72
2024/01/20 08:32:09;;;;;;;;;;;;;;;;;;5004830;28;19960;-74
2024/01/20 08:34:34;;;;;;;;;;;;;;;;;;5014618;28;20424;-73
2024/01/20 08:37:02;;;;;;;;;;;;;;;;;;5022825;28;20373;-73
2024/01/20 08:39:27;;;;;;;;;;;;;;;;;;5016724;28;19928;-72
2024/01/20 08:41:55;;;;;;;;;;;;;;;;;;5021612;28;19921;-73
2024/01/20 08:44:20;;;;;;;;;;;;;;;;;;5054677;28;19921;-72
2024/01/20 08:46:47;;;;;;;;;;;;;;;;;;5021227;28;20284;-71
2024/01/20 08:49:13;;;;;;;;;;;;;;;;;;5003925;28;20280;-74
2024/01/20 08:51:38;;;;;;;;;;;;;;;;;;5052736;28;19921;-72
2024/01/20 08:54:04;;;;;;;;;;;;;;;;;;5021144;28;20292;-73
2024/01/20 08:56:29;;;;;;;;;;;;;;;;;;5020023;28;19929;-74
2024/01/20 08:58:55;;;;;;;;;;;;;;;;;;5021938;28;19923;-74
2024/01/20 09:01:20;;;;;;;;;;;;;;;;;;5001598;28;19924;-73
2024/01/20 09:03:45;;;;;;;;;;;;;;;;;;5021873;28;19927;-72
2024/01/20 09:06:15;;;;;;;;;;;;;;;;;;5035413;28;19949;-72
2024/01/20 09:08:40;;;;;;;;;;;;;;;;;;5022629;28;19925;-73
2024/01/20 09:11:05;;;;;;;;;;;;;;;;;;5021221;28;19917;-74
2024/01/20 09:13:31;;;;;;;;;;;;;;;;;;5036096;28;19916;-74
2024/01/20 09:15:56;;;;;;;;;;;;;;;;;;5036765;28;19925;-75
2024/01/20 09:18:21;;;;;;;;;;;;;;;;;;5021704;28;19959;-76
2024/01/20 09:20:47;;;;;;;;;;;;;;;;;;5023674;28;20578;-75
2024/01/20 09:23:12;;;;;;;;;;;;;;;;;;5019107;28;20530;-73
2024/01/20 09:25:38;;;;;;;;;;;;;;;;;;5020825;28;19921;-71
2024/01/20 09:28:04;;;;;;;;;;;;;;;;;;5020596;28;19917;-73
2024/01/20 09:30:29;;;;;;;;;;;;;;;;;;5038220;28;19928;-75
2024/01/20 09:32:54;;;;;;;;;;;;;;;;;;5018580;28;20266;-73
2024/01/20 09:35:20;;;;;;;;;;;;;;;;;;5018695;28;20381;-73
2024/01/20 09:37:46;;;;;;;;;;;;;;;;;;5018517;28;19921;-73
2024/01/20 09:40:11;;;;;;;;;;;;;;;;;;5019118;28;20606;-74
2024/01/20 09:42:36;;;;;;;;;;;;;;;;;;5018373;28;19973;-75
2024/01/20 09:45:02;;;;;;;;;;;;;;;;;;5018491;28;20328;-73
2024/01/20 09:47:27;;;;;;;;;;;;;;;;;;5034955;28;19925;-73
2024/01/20 09:49:53;;;;;;;;;;;;;;;;;;5021721;28;19918;-74
2024/01/20 09:52:18;;;;;;;;;;;;;;;;;;5020249;28;19931;-74
2024/01/20 09:54:43;;;;;;;;;;;;;;;;;;5019837;28;21849;-75
2024/01/20 09:57:11;;;;;;;;;;;;;;;;;;5020918;28;20440;-74
2024/01/20 09:59:37;;;;;;;;;;;;;;;;;;5031523;28;20627;-74
2024/01/20 10:02:02;;;;;;;;;;;;;;;;;;5017694;28;19952;-75
2024/01/20 10:04:27;;;;;;;;;;;;;;;;;;5015149;28;19925;-75
2024/01/20 10:06:54;;;;;;;;;;;;;;;;;;5020256;28;19929;-75
2024/01/20 10:09:19;;;;;;;;;;;;;;;;;;5020302;28;19940;-74
2024/01/20 10:11:44;;;;;;;;;;;;;;;;;;5037872;28;19917;-74
2024/01/20 10:14:10;;;;;;;;;;;;;;;;;;5002794;28;20023;-76
2024/01/20 10:16:35;;;;;;;;;;;;;;;;;;5035122;28;19924;-75
2024/01/20 10:19:00;;;;;;;;;;;;;;;;;;5017860;28;20011;-75
2024/01/20 10:21:26;;;;;;;;;;;;;;;;;;5020815;28;20311;-75
2024/01/20 10:23:51;;;;;;;;;;;;;;;;;;5017870;28;19921;-75
2024/01/20 10:26:16;;;;;;;;;;;;;;;;;;5019783;28;19917;-78
2024/01/20 10:28:43;;;;;;;;;;;;;;;;;;4997213;28;19917;-74
2024/01/20 10:31:09;;;;;;;;;;;;;;;;;;5017572;28;19928;-74
2024/01/20 10:33:34;;;;;;;;;;;;;;;;;;5001243;28;19978;-73
2024/01/20 10:35:59;;;;;;;;;;;;;;;;;;5017840;28;19975;-75
2024/01/20 10:38:25;;;;;;;;;;;;;;;;;;5019621;28;19931;-74
2024/01/20 10:40:52;;;;;;;;;;;;;;;;;;5036970;28;19923;-75
2024/01/20 10:43:17;;;;;;;;;;;;;;;;;;5021989;28;19916;-74
2024/01/20 10:45:43;;;;;;;;;;;;;;;;;;5051783;28;19932;-74
2024/01/20 10:48:08;;;;;;;;;;;;;;;;;;5040439;28;20057;-73
2024/01/20 10:50:34;;;;;;;;;;;;;;;;;;5036007;28;19921;-73
2024/01/20 10:53:02;;;;;;;;;;;;;;;;;;5037420;28;19917;-73
2024/01/20 10:55:27;;;;;;;;;;;;;;;;;;5020930;28;20471;-72
2024/01/20 10:57:52;;;;;;;;;;;;;;;;;;5037154;28;19938;-73
2024/01/20 11:00:18;;;;;;;;;;;;;;;;;;5035931;28;19974;-74
2024/01/20 11:02:43;;;;;;;;;;;;;;;;;;5021997;28;19959;-74
2024/01/20 11:05:08;;;;;;;;;;;;;;;;;;5021374;28;19993;-74
2024/01/20 11:07:33;;;;;;;;;;;;;;;;;;5024064;28;20439;-75
2024/01/20 11:09:59;;;;;;;;;;;;;;;;;;5022476;28;20363;-76
2024/01/20 11:12:25;;;;;;;;;;;;;;;;;;4997280;28;19929;-74
2024/01/20 11:14:50;;;;;;;;;;;;;;;;;;5031373;28;19932;-73
2024/01/20 11:17:16;;;;;;;;;;;;;;;;;;5019224;28;19948;-73
2024/01/20 11:19:44;;;;;;;;;;;;;;;;;;5014165;28;20499;-73
2024/01/20 11:22:09;;;;;;;;;;;;;;;;;;5027534;28;19967;-73
2024/01/20 11:24:35;;;;;;;;;;;;;;;;;;5028069;28;19924;-74
2024/01/20 11:27:00;;;;;;;;;;;;;;;;;;5028740;28;19917;-73
2024/01/20 11:29:25;;;;;;;;;;;;;;;;;;5016618;28;19921;-73
2024/01/20 11:31:51;;;;;;;;;;;;;;;;;;5016515;28;20392;-72
2024/01/20 11:34:16;;;;;;;;;;;;;;;;;;5021774;28;19916;-72
2024/01/20 11:36:42;;;;;;;;;;;;;;;;;;5009558;28;20318;-73
2024/01/20 11:39:07;;;;;;;;;;;;;;;;;;5016834;28;19924;-73
2024/01/20 11:41:35;;;;;;;;;;;;;;;;;;5020699;28;19995;-71
2024/01/20 11:44:00;;;;;;;;;;;;;;;;;;5017193;28;20414;-72
2024/01/20 11:46:26;;;;;;;;;;;;;;;;;;5019584;28;19964;-72
2024/01/20 11:48:52;;;;;;;;;;;;;;;;;;5019551;28;20443;-71
2024/01/20 11:51:17;;;;;;;;;;;;;;;;;;5018375;28;19921;-71
2024/01/20 11:53:43;;;;;;;;;;;;;;;;;;5034499;28;19927;-71
2024/01/20 11:56:08;;;;;;;;;;;;;;;;;;5021415;28;19936;-71
2024/01/20 11:58:34;;;;;;;;;;;;;;;;;;5019330;28;19918;-70
2024/01/20 12:00:59;;;;;;;;;;;;;;;;;;4998779;28;19917;-71
2024/01/20 12:03:25;;;;;;;;;;;;;;;;;;5001724;28;19921;-71
2024/01/20 12:05:51;;;;;;;;;;;;;;;;;;5023064;28;19962;-70
2024/01/20 12:08:16;;;;;;;;;;;;;;;;;;5019916;28;20391;-71
2024/01/20 12:10:45;;;;;;;;;;;;;;;;;;5016396;28;19936;-72
2024/01/20 12:13:10;;;;;;;;;;;;;;;;;;5019498;28;20327;-71
2024/01/20 12:15:36;;;;;;;;;;;;;;;;;;5016540;28;20164;-72
2024/01/20 12:18:06;;;;;;;;;;;;;;;;;;5016902;28;20386;-70
2024/01/20 12:20:32;;;;;;;;;;;;;;;;;;5016566;28;20118;-69
2024/01/20 12:23:00;;;;;;;;;;;;;;;;;;5018361;28;20384;-69
2024/01/20 12:28:45;;;;;;;;;;;;;;;;;;5015994;28;19935;-68
2024/01/20 12:31:10;;;;;;;;;;;;;;;;;;5001923;28;20040;-69
2024/01/20 12:33:35;;;;;;;;;;;;;;;;;;5009888;28;19917;-72
2024/01/20 12:36:04;;;;;;;;;;;;;;;;;;5014524;28;19924;-70
2024/01/20 12:38:32;;;;;;;;;;;;;;;;;;5015823;28;19968;-69
2024/01/20 12:40:58;;;;;;;;;;;;;;;;;;5015369;28;20004;-68
2024/01/20 12:43:26;;;;;;;;;;;;;;;;;;5016066;28;19927;-69
2024/01/20 12:45:51;;;;;;;;;;;;;;;;;;5018382;28;20403;-70
2024/01/20 12:48:16;;;;;;;;;;;;;;;;;;5046087;28;20453;-70
2024/01/20 12:50:44;;;;;;;;;;;;;;;;;;4996984;28;20006;-68
2024/01/20 12:53:09;;;;;;;;;;;;;;;;;;5029166;28;19921;-68
2024/01/20 12:55:35;;;;;;;;;;;;;;;;;;5015074;28;19924;-68
2024/01/20 12:58:03;;;;;;;;;;;;;;;;;;5015098;28;19926;-68
2024/01/20 13:00:28;;;;;;;;;;;;;;;;;;5008311;28;20160;-67
2024/01/20 13:02:54;;;;;;;;;;;;;;;;;;4993170;28;19923;-68
2024/01/20 13:05:22;;;;;;;;;;;;;;;;;;5017142;28;19927;-68
2024/01/20 13:07:50;;;;;;;;;;;;;;;;;;5009424;28;19921;-68
2024/01/20 13:10:16;;;;;;;;;;;;;;;;;;5015304;28;19931;-67
2024/01/20 13:12:41;;;;;;;;;;;;;;;;;;5015470;28;19920;-68
2024/01/20 13:15:06;;;;;;;;;;;;;;;;;;5002533;28;19921;-68
2024/01/20 13:17:32;;;;;;;;;;;;;;;;;;5006861;28;19964;-68
2024/01/20 13:19:57;;;;;;;;;;;;;;;;;;5015679;28;20051;-68
2024/01/20 13:22:26;;;;;;;;;;;;;;;;;;4989777;28;20374;-68
2024/01/20 13:24:56;;;;;;;;;;;;;;;;;;5014915;28;19917;-69
2024/01/20 13:27:23;;;;;;;;;;;;;;;;;;5031999;28;19920;-67
2024/01/20 13:29:51;;;;;;;;;;;;;;;;;;5038352;28;19924;-69
2024/01/20 13:32:18;;;;;;;;;;;;;;;;;;5053266;28;19921;-69
2024/01/20 13:34:44;;;;;;;;;;;;;;;;;;5025260;28;19924;-69
2024/01/20 13:37:09;;;;;;;;;;;;;;;;;;5016386;28;19924;-69
2024/01/20 13:39:34;;;;;;;;;;;;;;;;;;5034352;28;20419;-66
2024/01/20 13:42:02;;;;;;;;;;;;;;;;;;5014913;28;19921;-66
2024/01/20 13:44:27;;;;;;;;;;;;;;;;;;5013181;28;20375;-67
2024/01/20 13:46:57;;;;;;;;;;;;;;;;;;5021030;28;19928;-66
2024/01/20 13:49:23;;;;;;;;;;;;;;;;;;5050185;28;19952;-66
2024/01/20 13:51:48;;;;;;;;;;;;;;;;;;5003719;28;20514;-66
2024/01/20 13:54:13;;;;;;;;;;;;;;;;;;5019950;28;19920;-67
2024/01/20 13:56:39;;;;;;;;;;;;;;;;;;5006400;28;19924;-68
2024/01/20 13:59:04;;;;;;;;;;;;;;;;;;5022699;28;19921;-67
2024/01/20 14:01:31;;;;;;;;;;;;;;;;;;5019086;28;19979;-68
2024/01/20 14:03:57;;;;;;;;;;;;;;;;;;5001154;28;19939;-66
2024/01/20 14:06:23;;;;;;;;;;;;;;;;;;5023226;28;20369;-67
2024/01/20 14:08:51;;;;;;;;;;;;;;;;;;5019329;28;19931;-67
2024/01/20 14:11:19;;;;;;;;;;;;;;;;;;5017899;28;20483;-67
2024/01/20 14:13:44;;;;;;;;;;;;;;;;;;5037241;28;19917;-68
2024/01/20 14:16:09;;;;;;;;;;;;;;;;;;5018649;28;20632;-68
2024/01/20 14:18:35;;;;;;;;;;;;;;;;;;5022963;28;20360;-68
2024/01/20 14:21:03;;;;;;;;;;;;;;;;;;5003988;28;20368;-69
2024/01/20 14:23:31;;;;;;;;;;;;;;;;;;5039815;28;19924;-68
2024/01/20 14:26:00;;;;;;;;;;;;;;;;;;5020436;28;19973;-68
2024/01/20 14:28:28;;;;;;;;;;;;;;;;;;5051977;28;19920;-68
2024/01/20 14:30:53;;;;;;;;;;;;;;;;;;5001736;28;19921;-69
2024/01/20 14:33:18;;;;;;;;;;;;;;;;;;5021091;28;19948;-68
2024/01/20 14:35:47;;;;;;;;;;;;;;;;;;5022228;28;19924;-69
2024/01/20 14:38:13;;;;;;;;;;;;;;;;;;5051025;28;19916;-70
2024/01/20 14:40:41;;;;;;;;;;;;;;;;;;5056317;28;19919;-67
2024/01/20 14:43:06;;;;;;;;;;;;;;;;;;5020480;28;20469;-69
2024/01/20 14:45:32;;;;;;;;;;;;;;;;;;5037784;28;19921;-69
2024/01/20 14:47:59;;;;;;;;;;;;;;;;;;5019453;28;19924;-69
2024/01/20 14:50:30;;;;;;;;;;;;;;;;;;5022512;28;20300;-68
2024/01/20 14:52:55;;;;;;;;;;;;;;;;;;5054026;28;20012;-69
2024/01/20 14:55:23;;;;;;;;;;;;;;;;;;5019519;28;20693;-69
2024/01/20 14:57:51;;;;;;;;;;;;;;;;;;5017065;28;19921;-70
2024/01/20 15:03:33;;;;;;;;;;;;;;;;;;5022484;28;19939;-68
2024/01/20 15:06:02;;;;;;;;;;;;;;;;;;5018578;28;20111;-69
2024/01/20 15:08:27;;;;;;;;;;;;;;;;;;5021041;28;19928;-69
2024/01/20 15:10:53;;;;;;;;;;;;;;;;;;5022208;28;19952;-70
2024/01/20 15:13:18;;;;;;;;;;;;;;;;;;5020202;28;19967;-68
2024/01/20 15:15:46;;;;;;;;;;;;;;;;;;5037297;28;19925;-69
2024/01/20 15:18:11;;;;;;;;;;;;;;;;;;5002455;28;19960;-69
2024/01/20 15:20:36;;;;;;;;;;;;;;;;;;5019587;28;20098;-70
2024/01/20 15:23:03;;;;;;;;;;;;;;;;;;5020594;28;19952;-69
2024/01/20 15:25:28;;;;;;;;;;;;;;;;;;5018917;28;20308;-70
2024/01/20 15:27:56;;;;;;;;;;;;;;;;;;5023488;28;19917;-69
2024/01/20 15:30:25;;;;;;;;;;;;;;;;;;5017655;28;19969;-69
2024/01/20 15:32:50;;;;;;;;;;;;;;;;;;5019590;28;19920;-67
2024/01/20 15:35:15;;;;;;;;;;;;;;;;;;5022933;28;20016;-69
2024/01/20 15:37:43;;;;;;;;;;;;;;;;;;5017644;28;20027;-68
2024/01/20 15:40:08;;;;;;;;;;;;;;;;;;5023470;28;19917;-68
2024/01/20 15:42:34;;;;;;;;;;;;;;;;;;5022935;28;19921;-69
2024/01/20 15:44:59;;;;;;;;;;;;;;;;;;5024703;28;19927;-69
2024/01/20 15:47:27;;;;;;;;;;;;;;;;;;5039718;28;19967;-69
2024/01/20 15:49:55;;;;;;;;;;;;;;;;;;5025348;28;19916;-69
2024/01/20 15:52:21;;;;;;;;;;;;;;;;;;5019764;28;19927;-69
2024/01/20 15:54:46;;;;;;;;;;;;;;;;;;5021591;28;20312;-68
2024/01/20 15:57:14;;;;;;;;;;;;;;;;;;5006978;28;20023;-68
2024/01/20 15:59:42;;;;;;;;;;;;;;;;;;5023005;28;20023;-68
2024/01/20 16:02:07;;;;;;;;;;;;;;;;;;5026719;28;20367;-69
2024/01/20 16:04:34;;;;;;;;;;;;;;;;;;5026407;28;19921;-68
2024/01/20 16:07:02;;;;;;;;;;;;;;;;;;5023604;28;19921;-69
2024/01/20 16:09:27;;;;;;;;;;;;;;;;;;5023268;28;19917;-69
2024/01/20 16:11:53;;;;;;;;;;;;;;;;;;5023464;28;19967;-68
2024/01/20 16:14:18;;;;;;;;;;;;;;;;;;5024465;28;19929;-69
2024/01/20 16:16:46;;;;;;;;;;;;;;;;;;5007685;28;19933;-69
2024/01/20 16:19:14;;;;;;;;;;;;;;;;;;5022866;28;19924;-70
2024/01/20 16:21:42;;;;;;;;;;;;;;;;;;5043109;28;20613;-68
2024/01/20 16:24:11;;;;;;;;;;;;;;;;;;5005407;28;19932;-68
2024/01/20 16:26:36;;;;;;;;;;;;;;;;;;5038344;28;19921;-68
2024/01/20 16:29:02;;;;;;;;;;;;;;;;;;5019123;28;19921;-68
2024/01/20 16:31:27;;;;;;;;;;;;;;;;;;5017807;28;19922;-68
2024/01/20 16:33:55;;;;;;;;;;;;;;;;;;5056904;28;20411;-69
2024/01/20 16:36:23;;;;;;;;;;;;;;;;;;5023933;28;19936;-69
2024/01/20 16:38:54;;;;;;;;;;;;;;;;;;5022917;28;19960;-69
2024/01/20 16:41:19;;;;;;;;;;;;;;;;;;5003626;28;20136;-69
2024/01/20 16:43:45;;;;;;;;;;;;;;;;;;5021311;28;19920;-69
2024/01/20 16:46:10;;;;;;;;;;;;;;;;;;5022152;28;19933;-69
2024/01/20 16:48:35;;;;;;;;;;;;;;;;;;5022018;28;20696;-70
2024/01/20 16:51:02;;;;;;;;;;;;;;;;;;5021109;28;19921;-69
2024/01/20 16:53:28;;;;;;;;;;;;;;;;;;5053419;28;20238;-69
2024/01/20 16:55:53;;;;;;;;;;;;;;;;;;5022995;28;19968;-68
2024/01/20 16:58:19;;;;;;;;;;;;;;;;;;5024330;28;20323;-69
2024/01/20 17:00:47;;;;;;;;;;;;;;;;;;5020424;28;19928;-70